Time,TemperatureF,DewpointF,PressureIn,WindDirection,WindDirectionDegrees,WindSpeedMPH,WindSpeedGustMPH,Humidity,HourlyPrecipIn,Conditions,Clouds,dailyrainin,SolarRadiationWatts/m^2,SoftwareType,DateUTC
2013-09-16 00:03:00,50.5,42.0,30.23,ENE,63,1.0,4.0,73,0.00,,,0.00,0,weatherlink.com 1.10,2013-09-16 04:03:00,
2013-09-16 00:18:00,50.5,42.0,30.24,NNE,32,1.0,6.0,72,0.00,,,0.00,0,weatherlink.com 1.10,2013-09-16 04:18:00,
2013-09-16 00:33:00,50.5,42.0,30.24,NNE,17,0.0,8.0,72,0.00,,,0.00,0,weatherlink.com 1.10,2013-09-16 04:33:00,
2013-09-16 00:48:00,50.5,42.0,30.24,North,355,1.0,6.0,72,0.00,,,0.00,0,weatherlink.com 1.10,2013-09-16 04:48:00,
2013-09-16 01:03:00,50.6,42.0,30.25,NNW,348,1.0,3.0,73,0.00,,,0.00,0,weatherlink.com 1.10,2013-09-16 05:03:00,
2013-09-16 01:18:00,50.6,43.0,30.25,West,263,0.0,3.0,74,0.00,,,0.00,0,weatherlink.com 1.10,2013-09-16 05:18:00,
2013-09-16 01:33:00,50.5,42.0,30.25,NNE,31,1.0,4.0,73,0.00,,,0.00,0,weatherlink.com 1.10,2013-09-16 05:33:00,
2013-09-16 01:48:00,50.4,42.0,30.25,SSW,211,0.0,4.0,72,0.00,,,0.00,0,weatherlink.com 1.10,2013-09-16 05:48:00,
2013-09-16 02:03:00,50.4,42.0,30.25,SSW,211,0.0,1.0,73,0.00,,,0.00,0,weatherlink.com 1.10,2013-09-16 06:03:00,
2013-09-16 02:18:00,50.5,42.0,30.26,NW,326,2.0,3.0,73,0.00,,,0.00,0,weatherlink.com 1.10,2013-09-16 06:18:00,
2013-09-16 02:33:00,50.7,42.0,30.26,NNE,28,2.0,4.0,72,0.00,,,0.00,0,weatherlink.com 1.10,2013-09-16 06:33:00,
2013-09-16 02:48:00,50.6,41.0,30.26,NE,40,4.0,5.0,70,0.00,,,0.00,0,weatherlink.com 1.10,2013-09-16 06:48:00,
2013-09-16 03:03:00,50.5,41.0,30.26,ENE,64,0.0,6.0,70,0.00,,,0.00,0,weatherlink.com 1.10,2013-09-16 07:03:00,
2013-09-16 03:18:00,50.1,41.0,30.27,NE,44,0.0,3.0,71,0.00,,,0.00,0,weatherlink.com 1.10,2013-09-16 07:18:00,
2013-09-16 03:33:00,49.9,41.0,30.27,NE,44,0.0,2.0,72,0.00,,,0.00,0,weatherlink.com 1.10,2013-09-16 07:33:00,
2013-09-16 03:48:00,49.7,41.0,30.27,NNE,20,0.0,4.0,73,0.00,,,0.00,0,weatherlink.com 1.10,2013-09-16 07:48:00,
2013-09-16 04:03:00,49.9,42.0,30.28,NE,41,2.0,3.0,73,0.00,,,0.00,0,weatherlink.com 1.10,2013-09-16 08:03:00,
2013-09-16 04:18:00,50.0,41.0,30.27,NNE,19,0.0,6.0,72,0.00,,,0.00,0,weatherlink.com 1.10,2013-09-16 08:18:00,
2013-09-16 04:33:00,50.0,42.0,30.28,NE,53,0.0,1.0,73,0.00,,,0.00,0,weatherlink.com 1.10,2013-09-16 08:33:00,
2013-09-16 04:48:00,49.7,42.0,30.29,NE,54,4.0,5.0,74,0.00,,,0.00,0,weatherlink.com 1.10,2013-09-16 08:48:00,
2013-09-16 05:03:00,49.9,41.0,30.29,ENE,65,0.0,2.0,72,0.00,,,0.00,0,weatherlink.com 1.10,2013-09-16 09:03:00,
2013-09-16 05:18:00,49.8,41.0,30.29,ENE,69,0.0,5.0,72,0.00,,,0.00,0,weatherlink.com 1.10,2013-09-16 09:18:00,
2013-09-16 05:34:00,49.5,42.0,30.30,ENE,69,0.0,1.0,76,0.00,,,0.00,0,weatherlink.com 1.10,2013-09-16 09:34:00,
2013-09-16 05:49:00,49.6,42.0,30.30,ENE,67,0.0,4.0,76,0.00,,,0.00,0,weatherlink.com 1.10,2013-09-16 09:49:00,
2013-09-16 06:04:00,49.5,42.0,30.31,ENE,61,0.0,3.0,75,0.00,,,0.00,0,weatherlink.com 1.10,2013-09-16 10:04:00,
2013-09-16 06:19:00,49.3,42.0,30.31,ENE,61,0.0,1.0,75,0.00,,,0.00,0,weatherlink.com 1.10,2013-09-16 10:19:00,
2013-09-16 06:34:00,48.9,42.0,30.32,ENE,61,0.0,0.0,78,0.00,,,0.00,0,weatherlink.com 1.10,2013-09-16 10:34:00,
2013-09-16 06:49:00,48.3,43.0,30.33,ENE,61,0.0,1.0,81,0.00,,,0.00,0,weatherlink.com 1.10,2013-09-16 10:49:00,
2013-09-16 07:04:00,48.0,43.0,30.33,ENE,61,0.0,0.0,82,0.00,,,0.00,0,weatherlink.com 1.10,2013-09-16 11:04:00,
2013-09-16 07:19:00,47.5,43.0,30.34,ENE,61,0.0,1.0,83,0.00,,,0.00,0,weatherlink.com 1.10,2013-09-16 11:19:00,
2013-09-16 07:34:00,46.8,42.0,30.34,ENE,61,0.0,0.0,83,0.00,,,0.00,5,weatherlink.com 1.10,2013-09-16 11:34:00,
2013-09-16 07:49:00,45.4,41.0,30.35,ENE,61,0.0,0.0,85,0.00,,,0.00,16,weatherlink.com 1.10,2013-09-16 11:49:00,
2013-09-16 08:04:00,44.6,41.0,30.36,ENE,61,0.0,1.0,87,0.00,,,0.00,26,weatherlink.com 1.10,2013-09-16 12:04:00,
2013-09-16 08:19:00,44.4,41.0,30.36,ENE,61,0.0,0.0,88,0.00,,,0.00,19,weatherlink.com 1.10,2013-09-16 12:19:00,
2013-09-16 08:34:00,44.4,41.0,30.36,ENE,61,0.0,0.0,88,0.00,,,0.00,30,weatherlink.com 1.10,2013-09-16 12:34:00,
2013-09-16 08:49:00,44.8,42.0,30.36,ENE,61,0.0,1.0,89,0.00,,,0.00,49,weatherlink.com 1.10,2013-09-16 12:49:00,
2013-09-16 09:04:00,46.0,43.0,30.37,ENE,61,0.0,1.0,89,0.00,,,0.00,123,weatherlink.com 1.10,2013-09-16 13:04:00,
2013-09-16 09:19:00,48.7,44.0,30.37,ENE,61,0.0,0.0,85,0.00,,,0.00,97,weatherlink.com 1.10,2013-09-16 13:19:00,
2013-09-16 09:34:00,50.8,44.0,30.37,ENE,61,0.0,1.0,76,0.00,,,0.00,91,weatherlink.com 1.10,2013-09-16 13:34:00,
2013-09-16 09:49:00,51.9,44.0,30.37,ENE,61,0.0,2.0,74,0.00,,,0.00,95,weatherlink.com 1.10,2013-09-16 13:49:00,
2013-09-16 10:04:00,52.6,44.0,30.38,ESE,109,0.0,3.0,72,0.00,,,0.00,139,weatherlink.com 1.10,2013-09-16 14:04:00,
2013-09-16 10:19:00,53.0,43.0,30.38,ESE,108,1.0,3.0,68,0.00,,,0.00,118,weatherlink.com 1.10,2013-09-16 14:19:00,
2013-09-16 10:34:00,53.0,42.0,30.39,NE,40,0.0,4.0,66,0.00,,,0.00,86,weatherlink.com 1.10,2013-09-16 14:34:00,
2013-09-16 10:49:00,53.3,43.0,30.39,NE,50,2.0,2.0,69,0.00,,,0.00,102,weatherlink.com 1.10,2013-09-16 14:49:00,
2013-09-16 11:04:00,53.3,43.0,30.39,ESE,123,0.0,2.0,69,0.00,,,0.00,148,weatherlink.com 1.10,2013-09-16 15:04:00,
2013-09-16 11:19:00,55.0,43.0,30.39,NNE,33,3.0,5.0,64,0.00,,,0.00,135,weatherlink.com 1.10,2013-09-16 15:19:00,
2013-09-16 11:34:00,53.6,42.0,30.39,ENE,63,0.0,3.0,65,0.00,,,0.00,132,weatherlink.com 1.10,2013-09-16 15:34:00,
2013-09-16 11:49:00,54.6,42.0,30.39,NE,52,0.0,4.0,62,0.00,,,0.00,84,weatherlink.com 1.10,2013-09-16 15:49:00,
2013-09-16 12:04:00,55.3,43.0,30.39,NE,50,2.0,5.0,63,0.00,,,0.00,733,weatherlink.com 1.10,2013-09-16 16:04:00,
2013-09-16 12:19:00,55.4,42.0,30.39,NE,45,2.0,7.0,60,0.00,,,0.00,714,weatherlink.com 1.10,2013-09-16 16:19:00,
2013-09-16 12:35:00,56.2,43.0,30.38,NE,49,3.0,5.0,61,0.00,,,0.00,728,weatherlink.com 1.10,2013-09-16 16:35:00,
2013-09-16 12:50:00,56.8,43.0,30.39,NE,53,3.0,7.0,60,0.00,,,0.00,740,weatherlink.com 1.10,2013-09-16 16:50:00,
2013-09-16 13:05:00,57.0,46.0,30.39,West,270,1.0,5.0,66,0.00,,,0.00,752,weatherlink.com 1.10,2013-09-16 17:05:00,
2013-09-16 13:20:00,56.7,43.0,30.39,NW,316,1.0,7.0,60,0.00,,,0.00,756,weatherlink.com 1.10,2013-09-16 17:20:00,
2013-09-16 13:35:00,56.7,43.0,30.39,NNE,29,4.0,5.0,61,0.00,,,0.00,763,weatherlink.com 1.10,2013-09-16 17:35:00,
2013-09-16 13:50:00,56.9,42.0,30.39,NNE,30,1.0,7.0,59,0.00,,,0.00,761,weatherlink.com 1.10,2013-09-16 17:50:00,
2013-09-16 14:05:00,57.4,44.0,30.38,NNE,32,0.0,5.0,62,0.00,,,0.00,754,weatherlink.com 1.10,2013-09-16 18:05:00,
2013-09-16 14:20:00,57.8,44.0,30.38,NE,35,2.0,7.0,60,0.00,,,0.00,751,weatherlink.com 1.10,2013-09-16 18:20:00,
2013-09-16 14:35:00,57.5,44.0,30.38,ENE,61,3.0,5.0,61,0.00,,,0.00,735,weatherlink.com 1.10,2013-09-16 18:35:00,
2013-09-16 14:50:00,57.0,43.0,30.37,ENE,63,3.0,6.0,61,0.00,,,0.00,717,weatherlink.com 1.10,2013-09-16 18:50:00,
2013-09-16 15:05:00,58.0,44.0,30.37,NE,36,0.0,5.0,60,0.00,,,0.00,698,weatherlink.com 1.10,2013-09-16 19:05:00,
2013-09-16 15:20:00,57.4,43.0,30.37,NE,44,1.0,6.0,60,0.00,,,0.00,671,weatherlink.com 1.10,2013-09-16 19:20:00,
2013-09-16 15:35:00,57.3,44.0,30.36,NE,55,0.0,5.0,61,0.00,,,0.00,647,weatherlink.com 1.10,2013-09-16 19:35:00,
2013-09-16 15:50:00,57.2,44.0,30.36,NE,46,2.0,6.0,62,0.00,,,0.00,617,weatherlink.com 1.10,2013-09-16 19:50:00,
2013-09-16 16:05:00,58.0,44.0,30.36,NNE,26,3.0,7.0,60,0.00,,,0.00,591,weatherlink.com 1.10,2013-09-16 20:05:00,
2013-09-16 16:20:00,57.4,45.0,30.35,NNE,26,1.0,6.0,64,0.00,,,0.00,555,weatherlink.com 1.10,2013-09-16 20:20:00,
2013-09-16 16:35:00,57.6,44.0,30.35,ENE,61,1.0,4.0,60,0.00,,,0.00,520,weatherlink.com 1.10,2013-09-16 20:35:00,
2013-09-16 16:50:00,57.5,44.0,30.35,ENE,72,0.0,5.0,61,0.00,,,0.00,483,weatherlink.com 1.10,2013-09-16 20:50:00,
2013-09-16 17:05:00,56.0,43.0,30.35,NE,52,1.0,4.0,63,0.00,,,0.00,95,weatherlink.com 1.10,2013-09-16 21:05:00,
2013-09-16 17:20:00,55.3,44.0,30.34,NE,55,1.0,7.0,65,0.00,,,0.00,39,weatherlink.com 1.10,2013-09-16 21:20:00,
2013-09-16 17:35:00,54.8,43.0,30.34,NE,54,0.0,4.0,65,0.00,,,0.00,33,weatherlink.com 1.10,2013-09-16 21:35:00,
2013-09-16 17:50:00,54.6,44.0,30.34,ESE,103,1.0,3.0,67,0.00,,,0.00,28,weatherlink.com 1.10,2013-09-16 21:50:00,
2013-09-16 18:05:00,54.3,43.0,30.34,NE,42,1.0,8.0,65,0.00,,,0.00,25,weatherlink.com 1.10,2013-09-16 22:05:00,
2013-09-16 18:20:00,54.0,43.0,30.33,ENE,57,0.0,4.0,67,0.00,,,0.00,21,weatherlink.com 1.10,2013-09-16 22:20:00,
2013-09-16 18:35:00,53.8,43.0,30.33,NE,50,0.0,4.0,67,0.00,,,0.00,18,weatherlink.com 1.10,2013-09-16 22:35:00,
2013-09-16 18:50:00,53.6,44.0,30.33,NE,49,2.0,3.0,69,0.00,,,0.00,16,weatherlink.com 1.10,2013-09-16 22:50:00,
2013-09-16 19:05:00,53.4,44.0,30.32,NE,49,0.0,2.0,70,0.00,,,0.00,12,weatherlink.com 1.10,2013-09-16 23:05:00,
2013-09-16 19:20:00,53.0,44.0,30.32,NE,46,0.0,2.0,71,0.00,,,0.00,11,weatherlink.com 1.10,2013-09-16 23:20:00,
2013-09-16 19:35:00,52.3,44.0,30.32,NE,46,0.0,0.0,74,0.00,,,0.00,9,weatherlink.com 1.10,2013-09-16 23:35:00,
2013-09-16 19:50:00,51.3,44.0,30.32,NE,46,0.0,0.0,77,0.00,,,0.00,5,weatherlink.com 1.10,2013-09-16 23:50:00,
2013-09-16 20:05:00,49.9,44.0,30.31,NE,46,0.0,0.0,80,0.00,,,0.00,0,weatherlink.com 1.10,2013-09-17 00:05:00,
2013-09-16 20:20:00,48.7,44.0,30.31,NE,46,0.0,0.0,83,0.00,,,0.00,0,weatherlink.com 1.10,2013-09-17 00:20:00,
2013-09-16 20:35:00,47.4,43.0,30.31,NE,46,0.0,0.0,84,0.00,,,0.00,0,weatherlink.com 1.10,2013-09-17 00:35:00,
2013-09-16 20:50:00,46.3,42.0,30.31,NE,46,0.0,0.0,85,0.00,,,0.00,0,weatherlink.com 1.10,2013-09-17 00:50:00,
2013-09-16 21:05:00,45.6,42.0,30.31,NE,46,0.0,0.0,87,0.00,,,0.00,0,weatherlink.com 1.10,2013-09-17 01:05:00,
2013-09-16 21:20:00,44.7,41.0,30.31,NE,46,0.0,0.0,87,0.00,,,0.00,0,weatherlink.com 1.10,2013-09-17 01:20:00,
2013-09-16 21:35:00,44.2,41.0,30.32,NE,46,0.0,0.0,88,0.00,,,0.00,0,weatherlink.com 1.10,2013-09-17 01:35:00,
2013-09-16 21:50:00,44.0,41.0,30.31,NE,46,0.0,0.0,88,0.00,,,0.00,0,weatherlink.com 1.10,2013-09-17 01:50:00,
2013-09-16 22:05:00,43.7,40.0,30.31,NE,46,0.0,0.0,88,0.00,,,0.00,0,weatherlink.com 1.10,2013-09-17 02:05:00,
2013-09-16 22:20:00,42.9,40.0,30.31,NE,46,0.0,0.0,88,0.00,,,0.00,0,weatherlink.com 1.10,2013-09-17 02:20:00,
2013-09-16 22:35:00,42.2,39.0,30.31,NE,46,0.0,0.0,88,0.00,,,0.00,0,weatherlink.com 1.10,2013-09-17 02:35:00,
2013-09-16 22:50:00,41.7,39.0,30.31,NE,46,0.0,0.0,89,0.00,,,0.00,0,weatherlink.com 1.10,2013-09-17 02:50:00,
2013-09-16 23:05:00,41.3,38.0,30.31,NE,46,0.0,0.0,89,0.00,,,0.00,0,weatherlink.com 1.10,2013-09-17 03:05:00,
2013-09-16 23:20:00,40.7,38.0,30.31,NE,46,0.0,0.0,89,0.00,,,0.00,0,weatherlink.com 1.10,2013-09-17 03:20:00,
2013-09-16 23:35:00,40.4,38.0,30.30,NE,46,0.0,0.0,89,0.00,,,0.00,0,weatherlink.com 1.10,2013-09-17 03:35:00,
2013-09-16 23:50:00,40.3,38.0,30.30,NE,46,0.0,0.0,90,0.00,,,0.00,0,weatherlink.com 1.10,2013-09-17 03:50:00,